Time;durP1;ratioP1;P1;durP2;ratioP2;P2;SDS_P1;SDS_P2;PMS_P1;PMS_P2;Temp;Humidity;BMP_temperature;BMP_pressure;BME280_temperature;BME280_humidity;BME280_pressure;Samples;Min_cycle;Max_cycle;Signal;HPM_P1;HPM_P2
2020/12/05 00:00:44;;;;;;;24.67;16.25;;;;;;;;;;5095567;28;20231;-64
2020/12/05 00:03:12;;;;;;;21.80;16.55;;;;;;;;;;5093759;28;20234;-65
2020/12/05 00:05:41;;;;;;;24.80;17.92;;;;;;;;;;5093799;28;20234;-65
2020/12/05 00:08:08;;;;;;;29.42;17.38;;;;;;;;;;5093734;28;20311;-65
2020/12/05 00:10:35;;;;;;;25.42;17.88;;;;;;;;;;5093899;28;20216;-64
2020/12/05 00:13:02;;;;;;;24.98;17.55;;;;;;;;;;5093606;28;20307;-66
2020/12/05 00:15:28;;;;;;;23.90;16.88;;;;;;;;;;5093562;28;20197;-65
2020/12/05 00:17:55;;;;;;;24.80;17.77;;;;;;;;;;5093668;28;20200;-64
2020/12/05 00:20:23;;;;;;;23.30;18.33;;;;;;;;;;5093307;28;20639;-64
2020/12/05 00:22:49;;;;;;;23.33;17.13;;;;;;;;;;5095190;28;20610;-65
2020/12/05 00:25:16;;;;;;;26.23;18.52;;;;;;;;;;5097926;28;20616;-65
2020/12/05 00:27:43;;;;;;;23.50;17.15;;;;;;;;;;5097449;28;20209;-65
2020/12/05 00:30:10;;;;;;;25.75;18.45;;;;;;;;;;5097643;28;20780;-64
2020/12/05 00:32:37;;;;;;;26.48;20.33;;;;;;;;;;5097979;28;20208;-64
2020/12/05 00:35:04;;;;;;;29.73;18.88;;;;;;;;;;5098333;28;20204;-64
2020/12/05 00:37:32;;;;;;;25.48;18.67;;;;;;;;;;5098863;28;20204;-64
2020/12/05 00:39:58;;;;;;;26.90;19.90;;;;;;;;;;5099114;28;20216;-65
2020/12/05 00:42:25;;;;;;;25.15;17.13;;;;;;;;;;5099208;28;20206;-64
2020/12/05 00:44:52;;;;;;;24.85;18.00;;;;;;;;;;5099280;28;20226;-65
2020/12/05 00:47:19;;;;;;;27.20;18.75;;;;;;;;;;5100919;28;20280;-65
2020/12/05 00:49:46;;;;;;;24.90;19.13;;;;;;;;;;5106664;28;20220;-66
2020/12/05 00:52:12;;;;;;;25.63;18.42;;;;;;;;;;5107347;28;20200;-65
2020/12/05 00:54:40;;;;;;;26.95;17.35;;;;;;;;;;5109177;28;20204;-65
2020/12/05 00:57:07;;;;;;;24.15;17.38;;;;;;;;;;5105055;28;20200;-65
2020/12/05 00:59:33;;;;;;;25.45;19.30;;;;;;;;;;5102751;28;20224;-65
2020/12/05 01:02:00;;;;;;;25.73;18.60;;;;;;;;;;5099584;28;20548;-64
2020/12/05 01:04:27;;;;;;;24.25;19.00;;;;;;;;;;5097269;28;20721;-64
2020/12/05 01:06:53;;;;;;;24.77;20.55;;;;;;;;;;5097329;28;20208;-65
2020/12/05 01:09:20;;;;;;;27.05;18.90;;;;;;;;;;5097212;28;20286;-64
2020/12/05 01:11:48;;;;;;;26.33;18.65;;;;;;;;;;5097027;28;20204;-65
2020/12/05 01:14:15;;;;;;;26.20;19.65;;;;;;;;;;5096921;28;20210;-65
2020/12/05 01:16:42;;;;;;;25.95;19.00;;;;;;;;;;5096541;28;20245;-64
2020/12/05 01:19:08;;;;;;;25.35;19.05;;;;;;;;;;5096414;28;20216;-64
2020/12/05 01:21:35;;;;;;;29.83;19.55;;;;;;;;;;5096537;28;20245;-67
2020/12/05 01:24:02;;;;;;;23.95;18.85;;;;;;;;;;5096544;28;20205;-65
2020/12/05 01:26:28;;;;;;;27.27;19.38;;;;;;;;;;5096490;28;20204;-65
2020/12/05 01:28:56;;;;;;;28.80;17.75;;;;;;;;;;5096304;28;20212;-65
2020/12/05 01:31:23;;;;;;;27.55;19.17;;;;;;;;;;5096614;28;20204;-65
2020/12/05 01:33:50;;;;;;;27.15;19.00;;;;;;;;;;5095739;28;20258;-64
2020/12/05 01:36:16;;;;;;;28.58;19.65;;;;;;;;;;5096455;28;20204;-65
2020/12/05 01:38:43;;;;;;;25.75;18.05;;;;;;;;;;5096053;28;20200;-65
2020/12/05 01:41:10;;;;;;;25.92;19.10;;;;;;;;;;5096241;28;20228;-64
2020/12/05 01:43:40;;;;;;;22.75;17.50;;;;;;;;;;5096189;28;20200;-64
2020/12/05 01:46:07;;;;;;;24.73;19.20;;;;;;;;;;5097043;28;20212;-65
2020/12/05 01:48:34;;;;;;;25.27;18.60;;;;;;;;;;5095820;28;20212;-64
2020/12/05 01:51:01;;;;;;;27.58;19.02;;;;;;;;;;5096075;28;20250;-64
2020/12/05 01:53:28;;;;;;;23.25;18.25;;;;;;;;;;5095941;28;20200;-64
2020/12/05 01:55:55;;;;;;;28.38;20.55;;;;;;;;;;5095967;28;20204;-64
2020/12/05 01:58:22;;;;;;;25.80;18.73;;;;;;;;;;5095954;28;20250;-64
2020/12/05 02:00:48;;;;;;;24.85;17.80;;;;;;;;;;5096204;28;20216;-64
2020/12/05 02:03:16;;;;;;;29.25;19.65;;;;;;;;;;5095986;28;20205;-64
2020/12/05 02:05:53;;;;;;;23.55;17.92;;;;;;;;;;5095772;28;20277;-64
2020/12/05 02:08:24;;;;;;;25.08;19.15;;;;;;;;;;5095994;28;20204;-64
2020/12/05 02:10:51;;;;;;;24.48;18.65;;;;;;;;;;5095466;28;20220;-64
2020/12/05 02:13:21;;;;;;;29.42;19.95;;;;;;;;;;5095983;28;20614;-66
2020/12/05 02:15:50;;;;;;;30.50;19.48;;;;;;;;;;5095724;28;20200;-64
2020/12/05 02:18:18;;;;;;;26.20;19.65;;;;;;;;;;5095396;28;20200;-65
2020/12/05 02:20:45;;;;;;;29.42;20.42;;;;;;;;;;5095320;28;20250;-65
2020/12/05 02:23:13;;;;;;;28.08;20.35;;;;;;;;;;5095616;28;20205;-64
2020/12/05 02:25:42;;;;;;;26.40;18.77;;;;;;;;;;5099611;28;20265;-64
2020/12/05 02:28:09;;;;;;;27.30;20.50;;;;;;;;;;5097083;28;20630;-65
2020/12/05 02:30:36;;;;;;;25.35;19.27;;;;;;;;;;5095663;28;20224;-64
2020/12/05 02:33:03;;;;;;;30.38;23.15;;;;;;;;;;5095624;28;20258;-65
2020/12/05 02:35:30;;;;;;;24.60;20.67;;;;;;;;;;5095345;28;20208;-65
2020/12/05 02:38:00;;;;;;;25.23;19.90;;;;;;;;;;5095165;28;20212;-64
2020/12/05 02:40:27;;;;;;;27.23;19.38;;;;;;;;;;5095150;28;20227;-64
2020/12/05 02:42:56;;;;;;;28.50;19.85;;;;;;;;;;5095084;28;20200;-64
2020/12/05 02:45:24;;;;;;;34.53;20.95;;;;;;;;;;5094990;28;20287;-64
2020/12/05 02:47:51;;;;;;;35.72;21.95;;;;;;;;;;5096088;28;20259;-64
2020/12/05 02:50:17;;;;;;;32.72;20.88;;;;;;;;;;5095288;28;20248;-64
2020/12/05 02:52:44;;;;;;;28.48;20.65;;;;;;;;;;5095350;28;20205;-64
2020/12/05 02:55:11;;;;;;;33.35;20.23;;;;;;;;;;5095546;28;20204;-64
2020/12/05 02:57:39;;;;;;;28.83;20.65;;;;;;;;;;5102019;28;20234;-65
2020/12/05 03:00:16;;;;;;;30.42;20.77;;;;;;;;;;5109814;28;20216;-65
2020/12/05 03:02:43;;;;;;;29.42;20.45;;;;;;;;;;5096504;28;20184;-64
2020/12/05 03:05:10;;;;;;;26.77;19.60;;;;;;;;;;5096465;28;20277;-63
2020/12/05 03:07:37;;;;;;;27.15;19.33;;;;;;;;;;5095491;28;20246;-64
2020/12/05 03:10:04;;;;;;;26.95;19.90;;;;;;;;;;5094752;28;20220;-65
2020/12/05 03:12:30;;;;;;;28.05;21.05;;;;;;;;;;5094968;28;20203;-64
2020/12/05 03:14:58;;;;;;;25.20;19.65;;;;;;;;;;5095146;28;20250;-64
2020/12/05 03:17:25;;;;;;;30.92;21.05;;;;;;;;;;5094870;28;20237;-64
2020/12/05 03:19:51;;;;;;;26.83;18.33;;;;;;;;;;5095637;28;20220;-64
2020/12/05 03:22:18;;;;;;;30.42;20.92;;;;;;;;;;5095116;28;20253;-64
2020/12/05 03:24:45;;;;;;;26.58;19.45;;;;;;;;;;5094855;28;20255;-64
2020/12/05 03:27:11;;;;;;;26.75;20.42;;;;;;;;;;5094409;28;20250;-65
2020/12/05 03:29:39;;;;;;;27.05;20.67;;;;;;;;;;5094317;28;20278;-65
2020/12/05 03:32:11;;;;;;;27.15;20.25;;;;;;;;;;5094377;28;20578;-64
2020/12/05 03:34:41;;;;;;;30.23;20.73;;;;;;;;;;5094356;28;20184;-64
2020/12/05 03:37:08;;;;;;;30.23;19.88;;;;;;;;;;5094248;28;20184;-65
2020/12/05 03:39:35;;;;;;;29.25;21.23;;;;;;;;;;5094058;28;20220;-65
2020/12/05 03:42:02;;;;;;;27.77;20.23;;;;;;;;;;5093901;28;20741;-65
2020/12/05 03:44:28;;;;;;;29.40;20.70;;;;;;;;;;5094136;28;20230;-65
2020/12/05 03:46:55;;;;;;;25.42;19.85;;;;;;;;;;5094065;28;20257;-65
2020/12/05 03:49:23;;;;;;;25.60;20.23;;;;;;;;;;5094054;28;20286;-64
2020/12/05 03:51:49;;;;;;;30.33;21.35;;;;;;;;;;5094267;28;20200;-64
2020/12/05 03:54:16;;;;;;;29.42;21.75;;;;;;;;;;5094085;28;20623;-64
2020/12/05 03:56:43;;;;;;;28.92;20.95;;;;;;;;;;5093591;28;20261;-65
2020/12/05 03:59:09;;;;;;;28.83;21.40;;;;;;;;;;5093477;28;20216;-64
2020/12/05 04:01:36;;;;;;;28.95;21.27;;;;;;;;;;5093833;28;20204;-65
2020/12/05 04:07:27;;;;;;;26.67;21.63;;;;;;;;;;5111842;27;20540;-65
2020/12/05 04:09:54;;;;;;;29.42;21.55;;;;;;;;;;5111138;28;20219;-65
2020/12/05 04:12:20;;;;;;;26.05;18.92;;;;;;;;;;5110928;28;20245;-64
2020/12/05 04:14:47;;;;;;;27.90;21.25;;;;;;;;;;5110820;28;20273;-65
2020/12/05 04:17:14;;;;;;;32.03;21.65;;;;;;;;;;5110788;28;20249;-65
2020/12/05 04:19:40;;;;;;;30.67;22.50;;;;;;;;;;5112604;28;20219;-65
2020/12/05 04:22:07;;;;;;;29.00;21.17;;;;;;;;;;5111268;28;20261;-66
2020/12/05 04:24:35;;;;;;;30.55;22.38;;;;;;;;;;5111594;28;20276;-66
2020/12/05 04:27:01;;;;;;;37.65;24.35;;;;;;;;;;5112395;28;20211;-65
2020/12/05 04:29:28;;;;;;;35.80;22.42;;;;;;;;;;5112169;28;20627;-66
2020/12/05 04:31:55;;;;;;;29.35;21.33;;;;;;;;;;5111179;28;20253;-66
2020/12/05 04:34:22;;;;;;;31.27;22.83;;;;;;;;;;5111859;28;20200;-65
2020/12/05 04:36:48;;;;;;;33.03;24.15;;;;;;;;;;5111533;28;20242;-66
2020/12/05 04:39:15;;;;;;;27.80;22.50;;;;;;;;;;5111111;28;20223;-65
2020/12/05 04:41:43;;;;;;;36.10;22.55;;;;;;;;;;5110907;28;20200;-65
2020/12/05 04:44:10;;;;;;;32.50;23.73;;;;;;;;;;5110688;28;20206;-66
2020/12/05 04:46:37;;;;;;;29.88;22.90;;;;;;;;;;5110806;28;20707;-66
2020/12/05 04:49:04;;;;;;;35.83;23.33;;;;;;;;;;5110990;28;20250;-66
2020/12/05 04:51:35;;;;;;;31.73;22.88;;;;;;;;;;5111073;28;20249;-66
2020/12/05 04:54:04;;;;;;;32.55;24.02;;;;;;;;;;5110704;28;20615;-65
2020/12/05 04:56:35;;;;;;;35.45;23.17;;;;;;;;;;5115449;28;20228;-66
2020/12/05 04:59:04;;;;;;;31.63;23.05;;;;;;;;;;5126166;28;20184;-66
2020/12/05 05:01:33;;;;;;;36.97;25.05;;;;;;;;;;5114132;28;20196;-66
2020/12/05 05:04:01;;;;;;;31.77;22.98;;;;;;;;;;5110741;28;20273;-66
2020/12/05 05:06:28;;;;;;;32.72;23.10;;;;;;;;;;5110116;28;20220;-66
2020/12/05 05:08:55;;;;;;;32.67;23.27;;;;;;;;;;5110021;28;20204;-65
2020/12/05 05:11:23;;;;;;;31.02;22.27;;;;;;;;;;5110586;28;20200;-64
2020/12/05 05:13:50;;;;;;;33.88;24.02;;;;;;;;;;5111023;28;20222;-64
2020/12/05 05:16:18;;;;;;;31.52;22.85;;;;;;;;;;5111392;28;20199;-64
2020/12/05 05:18:45;;;;;;;31.27;23.42;;;;;;;;;;5097785;28;20207;-63
2020/12/05 05:21:34;;;;;;;34.63;24.02;;;;;;;;;;5097209;28;20200;-64
2020/12/05 05:24:01;;;;;;;30.27;22.42;;;;;;;;;;5097110;28;20192;-65
2020/12/05 05:26:29;;;;;;;34.58;24.98;;;;;;;;;;5097041;28;20588;-66
2020/12/05 05:28:56;;;;;;;31.50;22.17;;;;;;;;;;5096853;28;20231;-66
2020/12/05 05:31:28;;;;;;;32.28;24.48;;;;;;;;;;5096224;28;20204;-66
2020/12/05 05:33:55;;;;;;;33.10;23.02;;;;;;;;;;5095991;28;20192;-66
2020/12/05 05:36:23;;;;;;;33.85;24.35;;;;;;;;;;5096196;28;20200;-64
2020/12/05 05:38:57;;;;;;;34.22;23.67;;;;;;;;;;5096392;28;20254;-65
2020/12/05 05:41:24;;;;;;;37.50;22.33;;;;;;;;;;5097247;28;20196;-64
2020/12/05 05:43:55;;;;;;;33.88;23.75;;;;;;;;;;5096462;28;20210;-64
2020/12/05 05:46:26;;;;;;;34.95;24.50;;;;;;;;;;5096500;28;20270;-65
2020/12/05 05:48:53;;;;;;;31.67;22.02;;;;;;;;;;5096643;28;20204;-64
2020/12/05 05:51:34;;;;;;;35.20;23.38;;;;;;;;;;5096686;28;20204;-64
2020/12/05 05:54:09;;;;;;;33.78;24.08;;;;;;;;;;5098023;28;20189;-65
2020/12/05 05:56:36;;;;;;;33.28;24.15;;;;;;;;;;5098068;28;20187;-64
2020/12/05 05:59:05;;;;;;;30.95;23.02;;;;;;;;;;5097312;28;20204;-65
2020/12/05 06:01:33;;;;;;;35.30;24.88;;;;;;;;;;5096707;28;20200;-66
2020/12/05 06:04:02;;;;;;;33.08;23.33;;;;;;;;;;5096191;28;20257;-66
2020/12/05 06:06:30;;;;;;;35.75;22.63;;;;;;;;;;5096698;28;20641;-65
2020/12/05 06:08:57;;;;;;;34.22;23.13;;;;;;;;;;5096507;28;20279;-66
2020/12/05 06:11:24;;;;;;;28.67;21.95;;;;;;;;;;5096638;28;20200;-65
2020/12/05 06:13:52;;;;;;;32.95;21.38;;;;;;;;;;5095911;28;20196;-64
2020/12/05 06:16:19;;;;;;;31.42;23.23;;;;;;;;;;5095545;28;20262;-65
2020/12/05 06:18:47;;;;;;;34.08;24.25;;;;;;;;;;5095081;28;20200;-64
2020/12/05 06:21:14;;;;;;;29.65;23.05;;;;;;;;;;5095224;28;20200;-66
2020/12/05 06:23:42;;;;;;;30.65;21.33;;;;;;;;;;5095301;28;20266;-64
2020/12/05 06:26:10;;;;;;;32.42;23.45;;;;;;;;;;5095096;28;20220;-63
2020/12/05 06:28:38;;;;;;;32.40;23.92;;;;;;;;;;5094495;28;20264;-65
2020/12/05 06:31:05;;;;;;;31.08;22.50;;;;;;;;;;5094794;28;20307;-65
2020/12/05 06:33:34;;;;;;;33.15;22.85;;;;;;;;;;5094645;28;20672;-64
2020/12/05 06:36:02;;;;;;;30.40;22.35;;;;;;;;;;5094898;28;20196;-66
2020/12/05 06:38:28;;;;;;;32.38;23.23;;;;;;;;;;5094845;28;20204;-64
2020/12/05 06:40:55;;;;;;;32.30;22.92;;;;;;;;;;5094705;28;20305;-65
2020/12/05 06:43:22;;;;;;;32.75;23.63;;;;;;;;;;5094409;28;20204;-65
2020/12/05 06:45:49;;;;;;;32.60;23.00;;;;;;;;;;5094305;28;20242;-65
2020/12/05 06:48:32;;;;;;;32.83;23.73;;;;;;;;;;5095244;28;20725;-64
2020/12/05 06:50:59;;;;;;;30.15;22.52;;;;;;;;;;5094416;28;20738;-63
2020/12/05 06:53:30;;;;;;;29.70;21.67;;;;;;;;;;5094813;28;20200;-65
2020/12/05 06:55:57;;;;;;;30.55;22.48;;;;;;;;;;5097660;28;20196;-65
2020/12/05 06:58:27;;;;;;;29.80;21.58;;;;;;;;;;5107777;28;20196;-65
2020/12/05 07:00:54;;;;;;;29.88;21.55;;;;;;;;;;5095292;28;20278;-64
2020/12/05 07:03:26;;;;;;;33.30;20.70;;;;;;;;;;5094308;28;20200;-65
2020/12/05 07:05:52;;;;;;;25.70;20.30;;;;;;;;;;5094337;28;20273;-65
2020/12/05 07:08:26;;;;;;;27.02;20.08;;;;;;;;;;5094367;28;20200;-64
2020/12/05 07:10:55;;;;;;;28.30;21.10;;;;;;;;;;5095032;28;20219;-64
2020/12/05 07:13:24;;;;;;;27.27;19.67;;;;;;;;;;5094718;28;20227;-65
2020/12/05 07:15:51;;;;;;;31.25;20.05;;;;;;;;;;5094319;28;20245;-65
2020/12/05 07:18:25;;;;;;;31.48;20.67;;;;;;;;;;5094722;28;20208;-65
2020/12/05 07:20:53;;;;;;;26.88;20.33;;;;;;;;;;5094638;28;20223;-65
2020/12/05 07:23:19;;;;;;;27.20;19.05;;;;;;;;;;5094399;28;20668;-65
2020/12/05 07:25:46;;;;;;;28.17;19.63;;;;;;;;;;5094326;28;20220;-64
2020/12/05 07:28:14;;;;;;;28.23;20.10;;;;;;;;;;5094259;28;20204;-65
2020/12/05 07:30:40;;;;;;;29.45;19.27;;;;;;;;;;5094702;28;20228;-65
2020/12/05 07:33:08;;;;;;;25.10;19.15;;;;;;;;;;5093893;28;20737;-65
2020/12/05 07:35:36;;;;;;;25.27;18.63;;;;;;;;;;5094870;28;20291;-65
2020/12/05 07:38:03;;;;;;;24.55;20.13;;;;;;;;;;5094281;28;20223;-66
2020/12/05 07:40:29;;;;;;;26.73;19.85;;;;;;;;;;5093654;28;20294;-64
2020/12/05 07:42:56;;;;;;;27.00;20.55;;;;;;;;;;5094063;28;20200;-66
2020/12/05 07:45:30;;;;;;;32.33;20.17;;;;;;;;;;5094109;28;20246;-64
2020/12/05 07:47:56;;;;;;;26.10;18.77;;;;;;;;;;5094612;28;20223;-65
2020/12/05 07:50:23;;;;;;;30.13;20.95;;;;;;;;;;5094247;28;20273;-65
2020/12/05 07:52:50;;;;;;;31.40;20.98;;;;;;;;;;5098588;28;20222;-66
2020/12/05 07:55:17;;;;;;;27.73;20.92;;;;;;;;;;5104646;28;20249;-65
2020/12/05 07:57:52;;;;;;;26.52;18.77;;;;;;;;;;5105634;28;20199;-66
2020/12/05 08:00:20;;;;;;;26.77;18.35;;;;;;;;;;5106076;28;20224;-65
2020/12/05 08:02:52;;;;;;;28.42;20.25;;;;;;;;;;5104790;28;20668;-65
2020/12/05 08:05:27;;;;;;;26.30;18.20;;;;;;;;;;5104190;28;20216;-66
2020/12/05 08:07:58;;;;;;;28.45;20.92;;;;;;;;;;5102887;28;20233;-66
2020/12/05 08:10:26;;;;;;;25.95;17.58;;;;;;;;;;5094454;28;20306;-65
2020/12/05 08:13:13;;;;;;;26.55;18.63;;;;;;;;;;5093779;28;20646;-65
2020/12/05 08:15:41;;;;;;;25.88;19.15;;;;;;;;;;5089619;28;20728;-66
2020/12/05 08:18:08;;;;;;;29.17;18.80;;;;;;;;;;5094275;28;20251;-66
2020/12/05 08:20:42;;;;;;;27.35;18.98;;;;;;;;;;5093705;28;20224;-65
2020/12/05 08:23:08;;;;;;;23.88;18.23;;;;;;;;;;5093637;28;20636;-65
2020/12/05 08:25:35;;;;;;;27.30;18.42;;;;;;;;;;5094362;28;20205;-64
2020/12/05 08:28:03;;;;;;;24.00;18.35;;;;;;;;;;5094150;28;20208;-65
2020/12/05 08:30:30;;;;;;;25.02;18.23;;;;;;;;;;5093568;28;20252;-64
2020/12/05 08:33:01;;;;;;;25.38;17.77;;;;;;;;;;5094243;28;20204;-64
2020/12/05 08:35:32;;;;;;;25.10;18.02;;;;;;;;;;5093854;28;20718;-65
2020/12/05 08:38:01;;;;;;;25.75;18.42;;;;;;;;;;5094594;28;20280;-64
2020/12/05 08:40:28;;;;;;;29.05;19.20;;;;;;;;;;5094331;28;20373;-65
2020/12/05 08:42:54;;;;;;;28.38;18.20;;;;;;;;;;5095517;28;20247;-64
2020/12/05 08:45:22;;;;;;;25.48;18.23;;;;;;;;;;5094468;28;20204;-64
2020/12/05 08:47:51;;;;;;;24.85;16.90;;;;;;;;;;5093597;28;20307;-66
2020/12/05 08:50:24;;;;;;;21.77;17.83;;;;;;;;;;5093542;28;20220;-65
2020/12/05 08:52:53;;;;;;;23.40;18.25;;;;;;;;;;5094755;28;20196;-65
2020/12/05 08:55:23;;;;;;;19.55;15.38;;;;;;;;;;5097061;28;20253;-64
2020/12/05 08:57:53;;;;;;;22.33;16.70;;;;;;;;;;5097494;28;20246;-64
2020/12/05 09:00:20;;;;;;;19.92;15.88;;;;;;;;;;5097217;28;20260;-65
2020/12/05 09:02:47;;;;;;;18.02;14.73;;;;;;;;;;5097654;28;20228;-65
2020/12/05 09:05:14;;;;;;;17.52;14.32;;;;;;;;;;5110893;28;20630;-65
2020/12/05 09:07:41;;;;;;;22.48;15.05;;;;;;;;;;5101566;28;20642;-64
2020/12/05 09:10:18;;;;;;;22.13;15.95;;;;;;;;;;5099040;28;20239;-66
2020/12/05 09:12:45;;;;;;;17.38;14.10;;;;;;;;;;5099237;28;20201;-66
2020/12/05 09:15:12;;;;;;;18.30;15.05;;;;;;;;;;5099142;28;20204;-64
2020/12/05 09:17:39;;;;;;;15.40;13.13;;;;;;;;;;5097703;28;20200;-66
2020/12/05 09:20:13;;;;;;;18.27;14.07;;;;;;;;;;5097869;28;20220;-65
2020/12/05 09:22:40;;;;;;;16.45;13.43;;;;;;;;;;5097170;28;20227;-65
2020/12/05 09:25:07;;;;;;;16.38;12.50;;;;;;;;;;5097318;28;20208;-65
2020/12/05 09:27:36;;;;;;;15.07;12.13;;;;;;;;;;5099150;28;20634;-66
2020/12/05 09:30:03;;;;;;;15.73;11.75;;;;;;;;;;5098912;28;20308;-66
2020/12/05 09:32:36;;;;;;;14.55;11.70;;;;;;;;;;5098957;28;20201;-65
2020/12/05 09:35:03;;;;;;;13.40;11.73;;;;;;;;;;5102943;28;20193;-65
2020/12/05 09:37:30;;;;;;;15.02;11.07;;;;;;;;;;5102845;28;20205;-65
2020/12/05 09:39:56;;;;;;;16.55;13.05;;;;;;;;;;5110157;28;20246;-66
2020/12/05 09:42:23;;;;;;;14.40;11.80;;;;;;;;;;5110073;28;20242;-64
2020/12/05 09:44:51;;;;;;;14.75;11.13;;;;;;;;;;5106321;28;20196;-65
2020/12/05 09:47:18;;;;;;;15.40;12.15;;;;;;;;;;5101238;28;20231;-66
2020/12/05 09:49:44;;;;;;;15.07;11.55;;;;;;;;;;5098133;28;20227;-65
2020/12/05 09:52:11;;;;;;;14.32;10.60;;;;;;;;;;5097241;28;20249;-65
2020/12/05 09:54:38;;;;;;;14.25;11.60;;;;;;;;;;5096823;28;20253;-65
2020/12/05 09:57:05;;;;;;;15.55;11.52;;;;;;;;;;5096176;28;20662;-63
2020/12/05 09:59:31;;;;;;;15.35;11.95;;;;;;;;;;5095936;28;20574;-66
2020/12/05 10:02:03;;;;;;;15.32;11.95;;;;;;;;;;5096763;28;20208;-65
2020/12/05 10:04:29;;;;;;;13.70;11.75;;;;;;;;;;5096073;28;20181;-64
2020/12/05 10:06:56;;;;;;;13.77;11.18;;;;;;;;;;5095715;28;20699;-65
2020/12/05 10:09:23;;;;;;;14.75;12.02;;;;;;;;;;5096663;28;20306;-65
2020/12/05 10:11:50;;;;;;;15.23;10.77;;;;;;;;;;5096144;28;20274;-65
2020/12/05 10:14:16;;;;;;;15.20;10.02;;;;;;;;;;5096099;28;20261;-64
2020/12/05 10:16:43;;;;;;;14.23;11.50;;;;;;;;;;5096486;28;20200;-65
2020/12/05 10:19:11;;;;;;;13.32;10.30;;;;;;;;;;5095377;28;20220;-65
2020/12/05 10:21:37;;;;;;;13.10;9.73;;;;;;;;;;5095948;28;20273;-66
2020/12/05 10:24:04;;;;;;;13.20;10.63;;;;;;;;;;5096702;28;20204;-66
2020/12/05 10:26:31;;;;;;;11.82;10.38;;;;;;;;;;5095140;28;20700;-66
2020/12/05 10:28:58;;;;;;;12.70;10.43;;;;;;;;;;5095462;28;20209;-67
2020/12/05 10:31:25;;;;;;;11.55;9.63;;;;;;;;;;5095462;28;20626;-65
2020/12/05 10:33:51;;;;;;;9.98;8.80;;;;;;;;;;5095544;28;20544;-66
2020/12/05 10:36:23;;;;;;;13.15;9.95;;;;;;;;;;5096151;28;20204;-66
2020/12/05 10:38:50;;;;;;;11.02;8.65;;;;;;;;;;5097827;28;20253;-66
2020/12/05 10:41:16;;;;;;;10.95;8.80;;;;;;;;;;5096342;28;20212;-66
2020/12/05 10:43:43;;;;;;;12.00;10.00;;;;;;;;;;5095821;28;20196;-67
2020/12/05 10:46:10;;;;;;;12.27;9.68;;;;;;;;;;5095775;28;20219;-67
2020/12/05 10:48:37;;;;;;;11.43;10.20;;;;;;;;;;5096255;28;20271;-67
2020/12/05 10:51:03;;;;;;;10.30;8.23;;;;;;;;;;5095811;28;20774;-67
2020/12/05 10:53:31;;;;;;;11.32;8.60;;;;;;;;;;5096060;28;20234;-67
2020/12/05 10:55:58;;;;;;;12.07;9.43;;;;;;;;;;5097871;28;20219;-67
2020/12/05 10:58:25;;;;;;;9.65;8.52;;;;;;;;;;5097907;28;20204;-67
2020/12/05 11:00:51;;;;;;;9.15;8.20;;;;;;;;;;5097039;28;20220;-68
2020/12/05 11:03:18;;;;;;;10.82;8.90;;;;;;;;;;5099474;28;20208;-67
2020/12/05 11:05:45;;;;;;;10.35;8.88;;;;;;;;;;5098809;28;20219;-67
2020/12/05 11:08:12;;;;;;;9.10;8.18;;;;;;;;;;5096175;28;20274;-67
2020/12/05 11:10:39;;;;;;;10.43;8.27;;;;;;;;;;5094592;28;20231;-67
2020/12/05 11:13:06;;;;;;;9.40;8.40;;;;;;;;;;5096051;28;20257;-66
2020/12/05 11:15:33;;;;;;;10.32;8.07;;;;;;;;;;5095391;28;20199;-67
2020/12/05 11:17:59;;;;;;;10.57;8.50;;;;;;;;;;5095405;28;20200;-66
2020/12/05 11:20:26;;;;;;;11.98;8.15;;;;;;;;;;5095031;28;20220;-67
2020/12/05 11:22:53;;;;;;;8.73;7.57;;;;;;;;;;5096051;28;20200;-67
2020/12/05 11:25:20;;;;;;;10.02;7.97;;;;;;;;;;5096270;28;20211;-65
2020/12/05 11:27:48;;;;;;;11.13;8.07;;;;;;;;;;5096016;28;20248;-66
2020/12/05 11:30:14;;;;;;;9.10;7.10;;;;;;;;;;5096227;28;20224;-69
2020/12/05 11:32:41;;;;;;;9.48;7.97;;;;;;;;;;5095481;28;20253;-67
2020/12/05 11:35:08;;;;;;;7.63;6.78;;;;;;;;;;5093807;28;20253;-67
2020/12/05 11:37:35;;;;;;;9.15;7.72;;;;;;;;;;5094246;28;20192;-66
2020/12/05 11:40:02;;;;;;;11.43;7.20;;;;;;;;;;5093910;28;20220;-66
2020/12/05 11:42:32;;;;;;;7.95;7.15;;;;;;;;;;5093935;28;20208;-66
2020/12/05 11:44:59;;;;;;;7.18;6.25;;;;;;;;;;5093929;28;20204;-66
2020/12/05 11:47:27;;;;;;;8.48;7.38;;;;;;;;;;5094621;28;20216;-66
2020/12/05 11:49:53;;;;;;;9.52;7.55;;;;;;;;;;5095640;28;20632;-67
2020/12/05 11:52:20;;;;;;;7.85;7.05;;;;;;;;;;5095027;28;20207;-66
2020/12/05 11:54:47;;;;;;;8.18;7.22;;;;;;;;;;5095811;28;20204;-64
2020/12/05 11:57:14;;;;;;;9.60;7.68;;;;;;;;;;5094580;28;20200;-66
2020/12/05 11:59:41;;;;;;;10.57;6.82;;;;;;;;;;5094369;28;20362;-66
2020/12/05 12:02:09;;;;;;;8.30;7.50;;;;;;;;;;5095706;28;20223;-66
2020/12/05 12:04:36;;;;;;;8.30;6.50;;;;;;;;;;5094627;28;20204;-67
2020/12/05 12:07:02;;;;;;;8.15;7.35;;;;;;;;;;5093529;28;20220;-67
2020/12/05 12:09:29;;;;;;;9.82;8.40;;;;;;;;;;5093670;28;20220;-67
2020/12/05 12:11:56;;;;;;;13.27;9.10;;;;;;;;;;5094235;28;20204;-66
2020/12/05 12:14:23;;;;;;;8.80;7.90;;;;;;;;;;5093316;28;20631;-66
2020/12/05 12:16:50;;;;;;;8.70;7.80;;;;;;;;;;5093778;28;20204;-67
2020/12/05 12:19:17;;;;;;;10.52;8.73;;;;;;;;;;5093963;28;20246;-66
2020/12/05 12:21:44;;;;;;;8.32;7.45;;;;;;;;;;5094439;28;20213;-67
2020/12/05 12:24:11;;;;;;;10.30;8.43;;;;;;;;;;5093995;28;20207;-68
2020/12/05 12:26:37;;;;;;;7.95;7.25;;;;;;;;;;5094251;28;20273;-67
2020/12/05 12:29:04;;;;;;;8.93;7.70;;;;;;;;;;5097607;28;20674;-67
2020/12/05 12:31:31;;;;;;;8.82;7.82;;;;;;;;;;5098088;28;20200;-68
2020/12/05 12:33:58;;;;;;;9.35;8.45;;;;;;;;;;5098473;28;20594;-66
2020/12/05 12:36:25;;;;;;;8.73;7.90;;;;;;;;;;5098698;28;20201;-67
2020/12/05 12:38:52;;;;;;;8.80;7.90;;;;;;;;;;5098024;28;20200;-66
2020/12/05 12:41:19;;;;;;;8.82;7.93;;;;;;;;;;5098530;28;20208;-65
2020/12/05 12:43:46;;;;;;;10.05;9.05;;;;;;;;;;5098425;28;20253;-67
2020/12/05 12:46:14;;;;;;;10.85;9.07;;;;;;;;;;5103171;28;20208;-66
2020/12/05 12:48:40;;;;;;;8.90;8.00;;;;;;;;;;5101690;28;20291;-66
2020/12/05 12:51:08;;;;;;;8.43;7.40;;;;;;;;;;5097770;28;20289;-66
2020/12/05 12:53:36;;;;;;;9.30;8.07;;;;;;;;;;5098203;28;20294;-65
2020/12/05 12:56:03;;;;;;;7.90;7.30;;;;;;;;;;5098527;28;20215;-64
2020/12/05 12:58:43;;;;;;;10.90;8.07;;;;;;;;;;5097553;28;20199;-65
2020/12/05 13:01:10;;;;;;;8.65;7.75;;;;;;;;;;5098082;28;20273;-66
2020/12/05 13:03:37;;;;;;;8.38;7.55;;;;;;;;;;5099529;28;20261;-64
2020/12/05 13:06:04;;;;;;;11.07;9.20;;;;;;;;;;5099572;28;20290;-65
2020/12/05 13:08:34;;;;;;;8.68;7.78;;;;;;;;;;5102238;28;20204;-65
2020/12/05 13:11:03;;;;;;;9.40;8.50;;;;;;;;;;5106163;28;20217;-66
2020/12/05 13:13:29;;;;;;;9.23;7.93;;;;;;;;;;5100328;28;20196;-65
2020/12/05 13:15:56;;;;;;;9.43;8.38;;;;;;;;;;5099750;28;20254;-66
2020/12/05 13:18:23;;;;;;;9.40;7.65;;;;;;;;;;5098378;28;20603;-64
2020/12/05 13:20:49;;;;;;;9.63;8.20;;;;;;;;;;5097226;28;20224;-65
2020/12/05 13:23:16;;;;;;;9.73;8.73;;;;;;;;;;5098716;28;20207;-65
2020/12/05 13:25:43;;;;;;;9.02;8.13;;;;;;;;;;5097769;28;20204;-64
2020/12/05 13:28:11;;;;;;;12.52;9.63;;;;;;;;;;5101914;28;20225;-64
2020/12/05 13:30:37;;;;;;;10.55;9.45;;;;;;;;;;5103372;28;20220;-66
2020/12/05 13:33:04;;;;;;;9.45;8.45;;;;;;;;;;5101076;28;20234;-65
2020/12/05 13:35:31;;;;;;;9.93;8.75;;;;;;;;;;5100745;28;20200;-66
2020/12/05 13:37:58;;;;;;;8.18;7.38;;;;;;;;;;5110677;28;20197;-65
2020/12/05 13:40:24;;;;;;;9.63;8.73;;;;;;;;;;5109483;28;20273;-65
2020/12/05 13:42:51;;;;;;;10.18;9.18;;;;;;;;;;5107758;28;20200;-66
2020/12/05 13:45:19;;;;;;;12.20;9.18;;;;;;;;;;5107524;28;20226;-66
2020/12/05 13:47:46;;;;;;;9.20;7.80;;;;;;;;;;5101081;28;20236;-65
2020/12/05 13:50:13;;;;;;;9.90;8.95;;;;;;;;;;5098220;28;20224;-66
2020/12/05 13:52:40;;;;;;;10.57;9.25;;;;;;;;;;5100081;28;20200;-66
2020/12/05 13:55:07;;;;;;;8.85;7.95;;;;;;;;;;5099924;28;20208;-66
2020/12/05 13:57:34;;;;;;;11.68;9.27;;;;;;;;;;5099893;28;20729;-64
2020/12/05 14:00:00;;;;;;;9.65;8.60;;;;;;;;;;5100683;28;20228;-66
2020/12/05 14:02:28;;;;;;;10.57;8.45;;;;;;;;;;5098431;28;20200;-66
2020/12/05 14:04:55;;;;;;;8.75;7.85;;;;;;;;;;5098012;28;20204;-64
2020/12/05 14:07:21;;;;;;;9.13;8.23;;;;;;;;;;5096978;28;20695;-65
2020/12/05 14:09:48;;;;;;;8.88;7.80;;;;;;;;;;5097003;28;20220;-65
2020/12/05 14:12:15;;;;;;;8.85;7.65;;;;;;;;;;5098239;28;20200;-66
2020/12/05 14:14:42;;;;;;;8.43;7.53;;;;;;;;;;5097988;28;20196;-64
2020/12/05 14:17:08;;;;;;;9.80;8.38;;;;;;;;;;5097256;28;20192;-66
2020/12/05 14:19:41;;;;;;;9.45;8.30;;;;;;;;;;5099650;28;20253;-65
2020/12/05 14:22:07;;;;;;;10.52;8.75;;;;;;;;;;5102417;28;20185;-63
2020/12/05 14:24:34;;;;;;;10.02;8.85;;;;;;;;;;5100201;28;20283;-66
2020/12/05 14:27:01;;;;;;;9.52;8.63;;;;;;;;;;5097526;28;20265;-65
2020/12/05 14:29:28;;;;;;;9.45;8.05;;;;;;;;;;5097374;28;20220;-65